createdAt,value
2022-09-18T00:01:13.462Z,100493.91
2022-09-18T00:03:41.102Z,100480.38
2022-09-18T00:06:16.983Z,100491.44
2022-09-18T00:08:44.117Z,100484.69
2022-09-18T00:11:13.470Z,100486.41
2022-09-18T00:13:41.162Z,100474.66
2022-09-18T00:16:10.137Z,100481.41
2022-09-18T00:18:36.933Z,100477.69
2022-09-18T00:21:08.785Z,100476.25
2022-09-18T00:23:36.505Z,100459.53
2022-09-18T00:26:04.435Z,100472.59
2022-09-18T00:28:31.692Z,100467.31
2022-09-18T00:31:31.433Z,100468.63
2022-09-18T00:34:00.377Z,100467.53
2022-09-18T00:36:27.652Z,100465.69
2022-09-18T00:38:56.378Z,100466.94
2022-09-18T00:41:25.295Z,100461.25
2022-09-18T00:43:54.106Z,100462.72
2022-09-18T00:46:33.364Z,100458.66
2022-09-18T00:49:19.276Z,100462.69
2022-09-18T00:51:48.365Z,100454.50
2022-09-18T00:54:23.212Z,100467.28
2022-09-18T00:56:51.573Z,100458.13
2022-09-18T00:59:24.067Z,100463.53
2022-09-18T01:01:50.968Z,100464.41
2022-09-18T01:04:17.890Z,100460.69
2022-09-18T01:07:09.041Z,100466.03
2022-09-18T01:09:48.375Z,100463.94
2022-09-18T01:12:50.559Z,100458.84
2022-09-18T01:15:17.628Z,100467.28
2022-09-18T01:18:19.274Z,100466.78
2022-09-18T01:21:01.747Z,100461.25
2022-09-18T01:23:43.815Z,100450.81
2022-09-18T01:26:13.739Z,100461.47
2022-09-18T01:28:48.659Z,100454.91
2022-09-18T01:31:34.864Z,100456.31
2022-09-18T01:34:20.165Z,100454.91
2022-09-18T01:36:52.271Z,100452.84
2022-09-18T01:39:30.867Z,100444.13
2022-09-18T01:42:05.136Z,100445.22
2022-09-18T01:44:33.527Z,100447.94
2022-09-18T01:47:05.069Z,100451.84
2022-09-18T01:49:40.226Z,100445.16
2022-09-18T01:52:10.566Z,100448.00
2022-09-18T01:54:42.493Z,100444.94
2022-09-18T01:57:18.470Z,100439.34
2022-09-18T01:59:56.031Z,100439.53
2022-09-18T02:02:39.241Z,100437.66
2022-09-18T02:05:08.774Z,100441.16
2022-09-18T02:07:45.824Z,100427.81
2022-09-18T02:10:13.269Z,100421.84
2022-09-18T02:12:42.297Z,100424.09
2022-09-18T02:15:12.300Z,100414.56
2022-09-18T02:17:57.719Z,100414.97
2022-09-18T02:20:34.769Z,100416.88
2022-09-18T02:23:07.377Z,100408.16
2022-09-18T02:25:44.965Z,100421.56
2022-09-18T02:28:12.674Z,100412.06
2022-09-18T02:30:42.596Z,100409.19
2022-09-18T02:33:30.632Z,100412.25
2022-09-18T02:36:28.756Z,100412.00
2022-09-18T02:39:14.989Z,100415.97
2022-09-18T02:41:48.218Z,100408.50
2022-09-18T02:44:20.858Z,100401.34
2022-09-18T02:46:47.734Z,100403.50
2022-09-18T02:49:28.212Z,100412.59
2022-09-18T02:52:20.672Z,100405.75
2022-09-18T02:54:57.886Z,100404.94
2022-09-18T02:57:33.680Z,100411.78
2022-09-18T03:00:02.081Z,100401.66
2022-09-18T03:02:30.412Z,100413.81
2022-09-18T03:04:57.254Z,100413.88
2022-09-18T03:07:33.868Z,100418.28
2022-09-18T03:10:00.888Z,100401.28
2022-09-18T03:12:29.144Z,100407.44
2022-09-18T03:14:56.020Z,100400.44
2022-09-18T03:17:23.943Z,100402.91
2022-09-18T03:19:51.562Z,100403.13
2022-09-18T03:22:18.387Z,100393.06
2022-09-18T03:24:45.139Z,100410.22
2022-09-18T03:27:14.065Z,100402.63
2022-09-18T03:29:41.443Z,100396.22
2022-09-18T03:32:10.934Z,100405.69
2022-09-18T03:34:49.634Z,100405.66
2022-09-18T03:37:16.827Z,100396.50
2022-09-18T03:39:45.076Z,100393.81
2022-09-18T03:42:13.673Z,100404.78
2022-09-18T03:44:40.411Z,100392.25
2022-09-18T03:47:16.850Z,100403.69
2022-09-18T03:49:43.806Z,100396.47
2022-09-18T03:52:10.967Z,100393.19
2022-09-18T03:54:45.479Z,100392.25
2022-09-18T03:57:31.178Z,100384.72
2022-09-18T04:00:17.346Z,100397.63
2022-09-18T04:02:48.085Z,100394.47
2022-09-18T04:05:33.514Z,100395.78
2022-09-18T04:08:19.010Z,100386.81
2022-09-18T04:11:09.547Z,100391.19
2022-09-18T04:13:36.447Z,100385.88
2022-09-18T04:16:07.880Z,100384.13
2022-09-18T04:18:34.828Z,100394.34
2022-09-18T04:21:02.553Z,100391.34
2022-09-18T04:23:29.658Z,100395.84
2022-09-18T04:25:57.386Z,100399.47
2022-09-18T04:28:29.183Z,100403.94
2022-09-18T04:30:56.050Z,100411.47
2022-09-18T04:33:23.224Z,100409.41
2022-09-18T04:35:50.194Z,100415.59
2022-09-18T04:38:17.041Z,100413.06
2022-09-18T04:40:44.020Z,100414.25
2022-09-18T04:43:11.694Z,100411.94
2022-09-18T04:45:40.208Z,100410.44
2022-09-18T04:48:07.002Z,100422.31
2022-09-18T04:50:33.817Z,100421.38
2022-09-18T04:53:09.655Z,100417.44
2022-09-18T04:55:36.600Z,100422.81
2022-09-18T04:58:03.552Z,100419.38
2022-09-18T05:00:30.613Z,100429.00
2022-09-18T05:03:00.181Z,100425.13
2022-09-18T05:05:29.701Z,100431.91
2022-09-18T05:08:01.051Z,100440.34
2022-09-18T05:10:28.950Z,100434.88
2022-09-18T05:12:56.399Z,100435.84
2022-09-18T05:15:23.578Z,100441.50
2022-09-18T05:18:02.362Z,100446.03
2022-09-18T05:20:30.599Z,100447.00
2022-09-18T05:23:04.048Z,100447.47
2022-09-18T05:25:31.436Z,100451.19
2022-09-18T05:28:00.311Z,100444.56
2022-09-18T05:30:33.152Z,100457.81
2022-09-18T05:33:07.295Z,100458.53
2022-09-18T05:35:38.735Z,100445.53
2022-09-18T05:38:06.228Z,100453.03
2022-09-18T05:40:36.442Z,100448.72
2022-09-18T05:43:04.398Z,100454.56
2022-09-18T05:45:33.740Z,100450.34
2022-09-18T05:48:05.573Z,100456.28
2022-09-18T05:50:34.762Z,100451.72
2022-09-18T05:53:15.402Z,100461.69
2022-09-18T05:56:02.362Z,100456.75
2022-09-18T05:58:30.755Z,100471.38
2022-09-18T06:00:58.800Z,100466.63
2022-09-18T06:03:32.831Z,100461.25
2022-09-18T06:06:00.951Z,100469.97
2022-09-18T06:08:27.721Z,100463.59
2022-09-18T06:10:54.849Z,100473.84
2022-09-18T06:13:21.677Z,100474.63
2022-09-18T06:15:52.720Z,100474.44
2022-09-18T06:18:31.521Z,100471.09
2022-09-18T06:21:00.577Z,100479.06
2022-09-18T06:23:29.731Z,100469.25
2022-09-18T06:26:07.866Z,100479.81
2022-09-18T06:28:36.523Z,100479.59
2022-09-18T06:31:05.940Z,100486.81
2022-09-18T06:34:01.930Z,100495.47
2022-09-18T06:36:28.741Z,100487.19
2022-09-18T06:39:03.712Z,100492.56
2022-09-18T06:41:30.549Z,100481.69
2022-09-18T06:43:57.423Z,100486.25
2022-09-18T06:46:32.694Z,100477.06
2022-09-18T06:49:12.612Z,100485.50
2022-09-18T06:51:42.583Z,100492.81
2022-09-18T06:54:13.274Z,100487.81
2022-09-18T06:56:41.577Z,100497.72
2022-09-18T06:59:10.529Z,100507.34
2022-09-18T07:01:37.970Z,100510.91
2022-09-18T07:04:30.243Z,100507.13
2022-09-18T07:06:58.614Z,100507.72
2022-09-18T07:09:27.403Z,100503.47
2022-09-18T07:11:54.256Z,100514.78
2022-09-18T07:14:29.902Z,100521.59
2022-09-18T07:17:03.358Z,100521.91
2022-09-18T07:19:30.306Z,100519.28
2022-09-18T07:21:57.045Z,100523.75
2022-09-18T07:24:24.912Z,100531.81
2022-09-18T07:26:51.771Z,100528.38
2022-09-18T07:29:18.766Z,100536.91
2022-09-18T07:31:45.649Z,100535.25
2022-09-18T07:34:13.375Z,100531.94
2022-09-18T07:36:41.141Z,100535.00
2022-09-18T07:39:08.683Z,100540.69
2022-09-18T07:41:55.501Z,100542.91
2022-09-18T07:44:22.385Z,100547.91
2022-09-18T07:46:51.113Z,100550.47
2022-09-18T07:49:18.675Z,100552.22
2022-09-18T07:51:46.490Z,100551.44
2022-09-18T07:54:15.049Z,100549.28
2022-09-18T07:57:02.302Z,100551.91
2022-09-18T07:59:36.937Z,100561.69
2022-09-18T08:02:05.780Z,100552.59
2022-09-18T08:04:32.622Z,100562.31
2022-09-18T08:07:14.674Z,100558.97
2022-09-18T08:09:56.559Z,100561.41
2022-09-18T08:12:41.798Z,100564.47
2022-09-18T08:15:27.415Z,100566.16
2022-09-18T08:18:12.060Z,100569.25
2022-09-18T08:20:57.605Z,100576.63
2022-09-18T08:23:29.972Z,100566.75
2022-09-18T08:26:02.036Z,100578.28
2022-09-18T08:28:29.119Z,100575.72
2022-09-18T08:30:58.910Z,100589.38
2022-09-18T08:33:26.411Z,100592.13
2022-09-18T08:35:55.502Z,100595.31
2022-09-18T08:38:27.314Z,100594.09
2022-09-18T08:41:18.540Z,100602.56
2022-09-18T08:43:56.404Z,100597.63
2022-09-18T08:46:34.590Z,100602.53
2022-09-18T08:49:15.419Z,100606.47
2022-09-18T08:51:57.785Z,100606.66
2022-09-18T08:55:01.710Z,100621.53
2022-09-18T08:57:50.171Z,100620.94
2022-09-18T09:00:46.406Z,100625.66
2022-09-18T09:03:39.266Z,100625.81
2022-09-18T09:06:20.507Z,100635.75
2022-09-18T09:09:08.543Z,100633.84
2022-09-18T09:12:10.667Z,100639.72
2022-09-18T09:14:56.635Z,100640.16
2022-09-18T09:17:49.063Z,100635.38
2022-09-18T09:20:26.124Z,100644.97
2022-09-18T09:22:56.958Z,100642.50
2022-09-18T09:25:25.222Z,100639.03
2022-09-18T09:28:16.903Z,100644.31
2022-09-18T09:30:56.964Z,100656.75
2022-09-18T09:34:09.131Z,100650.13
2022-09-18T09:36:54.366Z,100654.34
2022-09-18T09:39:26.357Z,100650.47
2022-09-18T09:42:03.558Z,100655.00
2022-09-18T09:44:35.373Z,100651.63
2022-09-18T09:47:40.550Z,100656.28
2022-09-18T09:50:08.758Z,100659.94
2022-09-18T09:52:41.252Z,100662.28
2022-09-18T09:55:13.886Z,100664.16
2022-09-18T09:57:44.677Z,100667.78
2022-09-18T10:00:20.545Z,100659.00
2022-09-18T10:02:53.561Z,100660.31
2022-09-18T10:05:30.168Z,100665.34
2022-09-18T10:08:36.169Z,100661.97
2022-09-18T10:11:11.400Z,100661.56
2022-09-18T10:13:55.850Z,100666.22
2022-09-18T10:16:36.573Z,100668.22
2022-09-18T10:19:05.623Z,100662.00
2022-09-18T10:21:35.606Z,100672.72
2022-09-18T10:24:24.168Z,100672.28
2022-09-18T10:27:08.199Z,100667.69
2022-09-18T10:29:36.126Z,100680.53
2022-09-18T10:32:06.907Z,100678.19
2022-09-18T10:34:45.875Z,100677.09
2022-09-18T10:37:30.081Z,100681.06
2022-09-18T10:40:33.526Z,100685.84
2022-09-18T10:43:02.898Z,100697.63
2022-09-18T10:45:32.399Z,100684.91
2022-09-18T10:48:25.435Z,100687.72
2022-09-18T10:50:54.469Z,100689.53
2022-09-18T10:53:38.744Z,100693.59
2022-09-18T10:56:32.271Z,100694.56
2022-09-18T10:59:28.819Z,100689.66
2022-09-18T11:02:00.297Z,100687.03
2022-09-18T11:04:29.956Z,100691.16
2022-09-18T11:06:58.964Z,100701.19
2022-09-18T11:09:35.489Z,100699.03
2022-09-18T11:12:02.658Z,100696.50
2022-09-18T11:14:38.531Z,100699.19
2022-09-18T11:17:25.979Z,100700.91
2022-09-18T11:19:55.397Z,100707.78
2022-09-18T11:22:44.620Z,100704.28
2022-09-18T11:25:32.024Z,100703.31
2022-09-18T11:28:30.146Z,100708.63
2022-09-18T11:31:19.770Z,100708.88
2022-09-18T11:33:55.963Z,100707.84
2022-09-18T11:36:32.151Z,100702.63
2022-09-18T11:39:01.265Z,100708.66
2022-09-18T11:41:36.620Z,100708.34
2022-09-18T11:44:06.311Z,100707.47
2022-09-18T11:46:53.603Z,100723.03
2022-09-18T11:49:26.668Z,100721.72
2022-09-18T11:52:05.364Z,100733.16
2022-09-18T11:54:46.714Z,100729.19
2022-09-18T11:57:25.343Z,100737.94
2022-09-18T12:00:09.209Z,100727.50
2022-09-18T12:03:04.895Z,100726.53
2022-09-18T12:05:41.113Z,100731.00
2022-09-18T12:08:39.851Z,100728.66
2022-09-18T12:11:37.189Z,100743.97
2022-09-18T12:14:20.968Z,100736.75
2022-09-18T12:17:16.455Z,100739.97
2022-09-18T12:19:50.984Z,100752.44
2022-09-18T12:22:42.501Z,100754.75
2022-09-18T12:25:16.907Z,100741.50
2022-09-18T12:28:02.512Z,100750.47
2022-09-18T12:31:06.445Z,100752.56
2022-09-18T12:33:45.685Z,100738.19
2022-09-18T12:36:20.101Z,100749.44
2022-09-18T12:38:47.454Z,100752.66
2022-09-18T12:41:53.629Z,100760.69
2022-09-18T12:44:34.762Z,100765.41
2022-09-18T12:47:19.974Z,100769.50
2022-09-18T12:50:05.087Z,100765.34
2022-09-18T12:52:55.516Z,100770.03
2022-09-18T12:55:51.216Z,100769.88
2022-09-18T12:58:50.313Z,100772.94
2022-09-18T13:01:36.311Z,100766.09
2022-09-18T13:04:39.506Z,100771.94
2022-09-18T13:07:20.279Z,100776.44
2022-09-18T13:10:02.068Z,100768.78
2022-09-18T13:12:53.579Z,100774.06
2022-09-18T13:15:22.986Z,100766.75
2022-09-18T13:18:13.831Z,100767.34
2022-09-18T13:20:44.135Z,100775.31
2022-09-18T13:23:38.031Z,100771.06
2022-09-18T13:26:07.014Z,100772.13
2022-09-18T13:28:33.741Z,100770.47
2022-09-18T13:31:18.962Z,100763.28
2022-09-18T13:34:06.201Z,100759.34
2022-09-18T13:36:38.690Z,100760.22
2022-09-18T13:39:14.862Z,100766.03
2022-09-18T13:41:49.783Z,100770.88
2022-09-18T13:44:21.560Z,100772.00
2022-09-18T13:46:49.687Z,100770.59
2022-09-18T13:49:26.526Z,100766.25
2022-09-18T13:51:53.427Z,100774.44
2022-09-18T13:54:23.377Z,100785.63
2022-09-18T13:57:10.436Z,100778.03
2022-09-18T14:00:02.602Z,100774.81
2022-09-18T14:02:39.267Z,100773.91
2022-09-18T14:05:30.976Z,100775.75
2022-09-18T14:08:19.056Z,100780.78
2022-09-18T14:11:05.395Z,100792.78
2022-09-18T14:13:39.044Z,100778.22
2022-09-18T14:16:34.476Z,100783.63
2022-09-18T14:19:30.579Z,100786.78
2022-09-18T14:21:58.313Z,100774.91
2022-09-18T14:24:40.358Z,100782.44
2022-09-18T14:27:35.599Z,100780.47
2022-09-18T14:30:24.882Z,100776.75
2022-09-18T14:33:20.447Z,100785.28
2022-09-18T14:35:57.822Z,100783.53
2022-09-18T14:38:33.527Z,100776.06
2022-09-18T14:41:35.617Z,100779.03
2022-09-18T14:44:04.149Z,100791.16
2022-09-18T14:46:32.304Z,100773.69
2022-09-18T14:49:00.861Z,100779.31
2022-09-18T14:51:40.665Z,100770.22
2022-09-18T14:54:22.698Z,100781.25
2022-09-18T14:56:50.724Z,100782.59
2022-09-18T14:59:18.808Z,100780.78
2022-09-18T15:01:45.621Z,100779.78
2022-09-18T15:04:18.217Z,100784.22
2022-09-18T15:06:53.559Z,100778.19
2022-09-18T15:09:24.874Z,100788.75
2022-09-18T15:12:02.138Z,100781.59
2022-09-18T15:14:45.382Z,100791.56
2022-09-18T15:17:25.877Z,100789.59
2022-09-18T15:19:57.019Z,100788.44
2022-09-18T15:22:24.184Z,100792.56
2022-09-18T15:24:51.235Z,100789.31
2022-09-18T15:27:18.629Z,100786.09
2022-09-18T15:29:49.848Z,100785.69
2022-09-18T15:32:26.305Z,100798.66
2022-09-18T15:34:55.243Z,100793.81
2022-09-18T15:37:26.731Z,100804.44
2022-09-18T15:40:06.641Z,100793.50
2022-09-18T15:42:36.122Z,100796.16
2022-09-18T15:45:03.867Z,100802.06
2022-09-18T15:47:34.646Z,100812.53
2022-09-18T15:50:22.651Z,100807.94
2022-09-18T15:52:52.359Z,100805.09
2022-09-18T15:55:23.360Z,100800.91
2022-09-18T15:57:50.822Z,100804.75
2022-09-18T16:00:27.091Z,100813.22
2022-09-18T16:02:57.958Z,100805.78
2022-09-18T16:05:26.782Z,100807.66
2022-09-18T16:08:17.011Z,100816.84
2022-09-18T16:10:48.887Z,100816.50
2022-09-18T16:13:15.575Z,100817.63
2022-09-18T16:15:47.592Z,100812.47
2022-09-18T16:18:27.412Z,100812.50
2022-09-18T16:20:57.977Z,100811.31
2022-09-18T16:23:32.213Z,100806.78
2022-09-18T16:26:01.896Z,100807.00
2022-09-18T16:28:30.116Z,100819.09
2022-09-18T16:30:56.849Z,100827.19
2022-09-18T16:33:26.468Z,100818.50
2022-09-18T16:36:00.023Z,100811.50
2022-09-18T16:38:26.879Z,100811.63
2022-09-18T16:40:54.007Z,100815.06
2022-09-18T16:43:21.095Z,100822.03
2022-09-18T16:45:48.515Z,100814.50
2022-09-18T16:48:15.613Z,100816.91
2022-09-18T16:50:42.680Z,100823.34
2022-09-18T16:53:09.770Z,100822.28
2022-09-18T16:55:39.100Z,100828.06
2022-09-18T16:58:06.245Z,100820.03
2022-09-18T17:00:35.244Z,100831.50
2022-09-18T17:03:02.187Z,100823.88
2022-09-18T17:05:28.930Z,100835.69
2022-09-18T17:07:55.929Z,100838.91
2022-09-18T17:10:23.026Z,100840.53
2022-09-18T17:12:49.981Z,100837.63
2022-09-18T17:15:16.866Z,100841.34
2022-09-18T17:17:45.574Z,100848.72
2022-09-18T17:20:17.724Z,100855.94
2022-09-18T17:22:45.429Z,100853.53
2022-09-18T17:25:13.907Z,100849.34
2022-09-18T17:27:43.694Z,100856.59
2022-09-18T17:30:11.724Z,100857.84
2022-09-18T17:32:38.908Z,100859.00
2022-09-18T17:35:06.574Z,100870.81
2022-09-18T17:37:33.312Z,100860.88
2022-09-18T17:40:00.520Z,100861.75
2022-09-18T17:42:27.567Z,100872.22
2022-09-18T17:44:54.384Z,100870.13
2022-09-18T17:47:21.406Z,100862.25
2022-09-18T17:49:48.292Z,100868.91
2022-09-18T17:52:15.273Z,100866.50
2022-09-18T17:54:42.141Z,100873.56
2022-09-18T17:57:11.965Z,100873.84
2022-09-18T17:59:39.949Z,100879.34
2022-09-18T18:02:08.098Z,100875.06
2022-09-18T18:04:35.498Z,100887.69
2022-09-18T18:07:03.564Z,100881.72
2022-09-18T18:09:30.641Z,100886.91
2022-09-18T18:11:57.578Z,100887.31
2022-09-18T18:14:29.135Z,100891.25
2022-09-18T18:16:55.845Z,100900.97
2022-09-18T18:19:22.823Z,100897.66
2022-09-18T18:21:49.608Z,100903.84
2022-09-18T18:24:18.321Z,100897.06
2022-09-18T18:26:46.702Z,100900.16
2022-09-18T18:29:16.778Z,100899.53
2022-09-18T18:31:44.211Z,100900.34
2022-09-18T18:34:11.891Z,100893.94
2022-09-18T18:36:40.110Z,100904.44
2022-09-18T18:39:12.071Z,100896.59
2022-09-18T18:41:39.667Z,100903.19
2022-09-18T18:44:07.150Z,100909.97
2022-09-18T18:46:36.596Z,100911.19
2022-09-18T18:49:11.797Z,100902.59
2022-09-18T18:51:47.881Z,100904.88
2022-09-18T18:54:20.071Z,100915.97
2022-09-18T18:56:47.151Z,100922.38
2022-09-18T18:59:16.181Z,100923.41
2022-09-18T19:01:43.449Z,100923.19
2022-09-18T19:04:13.806Z,100926.00
2022-09-18T19:06:43.106Z,100930.75
2022-09-18T19:09:29.531Z,100928.31
2022-09-18T19:11:57.613Z,100929.97
2022-09-18T19:14:28.812Z,100927.50
2022-09-18T19:16:55.724Z,100932.66
2022-09-18T19:19:24.548Z,100930.84
2022-09-18T19:21:52.070Z,100939.47
2022-09-18T19:24:19.012Z,100938.31
2022-09-18T19:26:47.118Z,100939.06
2022-09-18T19:29:16.247Z,100943.19
2022-09-18T19:31:44.563Z,100936.81
2022-09-18T19:34:16.124Z,100945.50
2022-09-18T19:36:46.760Z,100947.16
2022-09-18T19:39:14.090Z,100953.53
2022-09-18T19:42:01.894Z,100953.16
2022-09-18T19:44:36.341Z,100966.59
2022-09-18T19:47:29.147Z,100959.75
2022-09-18T19:49:57.067Z,100964.47
2022-09-18T19:52:27.345Z,100970.25
2022-09-18T19:54:55.528Z,100967.13
2022-09-18T19:57:23.793Z,100964.06
2022-09-18T19:59:55.171Z,100964.44
2022-09-18T20:02:22.578Z,100964.81
2022-09-18T20:04:49.348Z,100982.97
2022-09-18T20:07:16.146Z,100980.88
2022-09-18T20:09:42.861Z,100984.78
2022-09-18T20:12:09.976Z,100984.53
2022-09-18T20:14:36.763Z,100980.88
2022-09-18T20:17:03.841Z,100980.69
2022-09-18T20:19:30.600Z,100977.09
2022-09-18T20:21:57.334Z,100990.81
2022-09-18T20:24:24.094Z,100984.81
2022-09-18T20:26:51.489Z,100981.59
2022-09-18T20:29:18.274Z,100981.22
2022-09-18T20:31:46.062Z,100984.50
2022-09-18T20:34:13.908Z,100983.59
2022-09-18T20:36:40.636Z,100992.75
2022-09-18T20:39:07.462Z,100986.91
2022-09-18T20:41:34.297Z,100996.84
2022-09-18T20:44:03.248Z,100996.09
2022-09-18T20:46:31.583Z,100996.78
2022-09-18T20:49:01.501Z,101002.22
2022-09-18T20:51:32.408Z,101001.59
2022-09-18T20:53:59.149Z,100998.75
2022-09-18T20:56:29.867Z,101001.88
2022-09-18T20:58:56.758Z,101002.09
2022-09-18T21:01:26.469Z,101006.06
2022-09-18T21:04:00.920Z,101002.63
2022-09-18T21:06:32.929Z,100996.19
2022-09-18T21:09:01.365Z,101004.53
2022-09-18T21:11:29.797Z,101006.56
2022-09-18T21:14:01.137Z,100996.69
2022-09-18T21:16:30.889Z,101007.34
2022-09-18T21:19:00.408Z,101008.78
2022-09-18T21:21:30.543Z,101006.16
2022-09-18T21:23:58.711Z,101003.72
2022-09-18T21:26:34.600Z,101008.75
2022-09-18T21:29:18.052Z,100999.94
2022-09-18T21:31:46.528Z,100991.19
2022-09-18T21:34:33.471Z,100998.00
2022-09-18T21:37:02.642Z,100993.81
2022-09-18T21:39:31.263Z,100987.81
2022-09-18T21:41:59.285Z,100995.84
2022-09-18T21:44:28.631Z,100997.38
2022-09-18T21:47:00.362Z,100998.13
2022-09-18T21:49:29.110Z,100994.78
2022-09-18T21:51:57.780Z,101000.31
2022-09-18T21:54:24.875Z,100999.00
2022-09-18T21:56:52.213Z,100996.88
2022-09-18T21:59:20.135Z,100996.66
2022-09-18T22:01:48.993Z,100999.25
2022-09-18T22:04:17.287Z,101007.94
2022-09-18T22:06:45.531Z,101001.69
2022-09-18T22:09:15.697Z,101005.94
2022-09-18T22:11:43.279Z,101006.06
2022-09-18T22:14:15.956Z,101008.63
2022-09-18T22:16:45.050Z,101012.72
2022-09-18T22:19:12.138Z,101003.59
2022-09-18T22:21:41.179Z,101009.31
2022-09-18T22:24:10.612Z,101008.31
2022-09-18T22:26:40.188Z,101000.31
2022-09-18T22:29:08.597Z,101001.94
2022-09-18T22:31:37.227Z,101010.50
2022-09-18T22:34:04.091Z,101007.72
2022-09-18T22:36:30.876Z,101008.50
2022-09-18T22:38:57.736Z,101007.63
2022-09-18T22:41:24.836Z,101015.34
2022-09-18T22:43:55.903Z,101014.16
2022-09-18T22:46:23.079Z,101010.84
2022-09-18T22:48:50.043Z,101015.66
2022-09-18T22:51:19.227Z,101019.22
2022-09-18T22:53:50.971Z,101014.25
2022-09-18T22:56:18.952Z,101017.00
2022-09-18T22:58:45.703Z,101018.38
2022-09-18T23:01:21.366Z,101028.69
2022-09-18T23:03:49.983Z,101028.41
2022-09-18T23:06:17.354Z,101030.06
2022-09-18T23:08:44.920Z,101020.16
2022-09-18T23:11:17.418Z,101016.16
2022-09-18T23:13:49.148Z,101024.19
2022-09-18T23:16:16.339Z,101033.50
2022-09-18T23:18:51.151Z,101027.22
2022-09-18T23:21:18.015Z,101025.97
2022-09-18T23:23:48.418Z,101022.50
2022-09-18T23:26:19.570Z,101023.31
2022-09-18T23:28:47.603Z,101029.69
2022-09-18T23:31:18.176Z,101030.88
2022-09-18T23:33:48.763Z,101029.50
2022-09-18T23:36:18.922Z,101025.53
2022-09-18T23:38:45.999Z,101022.38
2022-09-18T23:41:16.004Z,101023.53
2022-09-18T23:43:47.990Z,101025.63
2022-09-18T23:46:15.835Z,101023.28
2022-09-18T23:48:42.933Z,101021.75
2022-09-18T23:51:14.006Z,101015.66
2022-09-18T23:53:41.636Z,101011.38
2022-09-18T23:56:12.768Z,101012.72
2022-09-18T23:58:40.741Z,101014.75
